Fergana, Uzbekistan
Current Conditions -  °F | °C
As of 2:00 AM on Saturday 01 Nov 2014 (Local Time) from UTFF Reporting Station
Clear Clear  
Wind Chill: 36°   Ceiling: Unl
Heat Index: 39°   Visibility: 4mi
Dew Point: 34°   Wind: 4mph
Humidity: 81%   Direction: 140°SE
Pressure: 30.15"   Gusts: NA
Location:  40.37°N, 71.75°E
Report Text: UTFF 312100Z 14002MPS 7000 NSC 04/01 Q1021 R18/CLRD70
Loading
Personal Weather Stations






























Interactive Weather Map
Tropical Storm Tracking
New forecast layout! Learn more

10-Day Weather Forecast

Advertisements
Track Severe Weather on mobile